Whitman, NE (69366)

8:20 PM MDT on July 11, 2014 (GMT -0600)
Thedford (KTIF) Elev 2927 ft | 41.96 °N, 100.57 °W | Change Station

Current weather conditions updated 25 minutes ago

Clear
Clear
81 °F
Feels Like 84 °F
N
7
Wind Variable Wind from ENE

Tomorrow is forecast to be Cooler than today.

Today
High -- | Low -- °F
--% Chance of Precip.
Yesterday
High -- | Low -- °F
Precip. -- in
5:21 AM 8:21 PM
Full, 100% visible
Pressure 30.02 in
Visibility 10.0 miles
Clouds Clear
Heat Index 84 °F
Dew Point 68 °F
Humidity 64%
Rainfall 0.05 in
Snow Depth Not available.
UV 0 out of 12
Pollen 3.80 out of 12
Air Quality Not available.
Flu Activity Sporadic
METAR KTIF 120155Z 07006KT 10SM CLR 27/20 A3002 RMK AO2 LTG DSNT SW AND NW T02720198 PWINO

More Conditions Fewer Conditions

Pressure 30.02 in
Visibility 10.0 miles
Clouds Clear
Heat Index 84 °F
Dew Point 68 °F
Humidity 64%
Rainfall 0.05 in
Snow Depth Not available.
UV 0 out of 12
Pollen 3.80 out of 12
Air Quality Not available.
Flu Activity Sporadic
METAR KTIF 120155Z 07006KT 10SM CLR 27/20 A3002 RMK AO2 LTG DSNT SW AND NW T02720198 PWINO

More Conditions Fewer Conditions

10-Day Weather Forecast

Almanac

Astronomy

Jul. 11, 2014 Rise Set
Actual Time 5:21 AM MDT 8:21 PM MDT
Civil Twilight 4:47 AM MDT 8:55 PM MDT
Nautical Twilight 4:04 AM MDT 9:38 PM MDT
Astronomical Twilight 3:14 AM MDT 10:28 PM MDT
Moon 7:32 PM MDT (7/11) 4:36 AM MDT (7/11)
Length of Visible Light 16h 08m
Length of Day
15h 00m
Tomorrow will be 1m 16s shorter.
Full, 100% of the Moon is Illuminated
Today
Full
Jul 12
Full
Jul 18
Last Quarter
Jul 26
New
Aug 3
First Quarter

Today's Extremes

State Highs State Lows

Community

WunderPhotos

Upload Photos

1,732,648 photos uploaded!

WunderBlogs® & News

Nearby

Snow Depth

Station Depth Elevation
No new snow has been reported.

Earthquake Activity

City Distance Mag. Time & Date
No recent earthquake activity has been reported nearby.
Minimum magnitude displayed is 2.5.

Coastal Water Temperatures

Place Temperature
No Stations Reporting

Nearby Weather Stations

There are no personal weather stations in this area.